Time;durP1;ratioP1;P1;durP2;ratioP2;P2;SDS_P1;SDS_P2;PMS_P1;PMS_P2;Temp;Humidity;BMP_temperature;BMP_pressure;BME280_temperature;BME280_humidity;BME280_pressure;Samples;Min_cycle;Max_cycle;Signal;HPM_P1;HPM_P2
2022/03/29 00:03:16;;;;;;;20.13;10.83;;;8.50;77.40;;;6.77;65.66;99931.53;10412119;27;96735;-82
2022/03/29 00:08:19;;;;;;;40.47;18.80;;;8.40;78.70;;;6.76;65.65;99915.84;10386046;28;96657;-81
2022/03/29 00:13:22;;;;;;;21.60;11.70;;;8.40;80.10;;;6.70;65.93;99914.63;10415996;27;96594;-82
2022/03/29 00:18:25;;;;;;;17.07;8.63;;;8.30;80.60;;;6.62;66.44;99920.69;10422754;27;96451;-82
2022/03/29 00:23:28;;;;;;;18.70;9.70;;;8.20;81.40;;;6.53;66.21;99908.34;10405675;28;96543;-82
2022/03/29 00:28:31;;;;;;;15.53;7.50;;;8.20;82.10;;;6.46;66.58;99909.09;10418031;27;97261;-82
2022/03/29 00:33:34;;;;;;;17.33;9.60;;;8.10;81.60;;;6.38;67.09;99892.22;10365993;28;96595;-82
2022/03/29 00:38:37;;;;;;;14.97;8.53;;;8.00;83.30;;;6.34;67.58;99890.00;10409752;27;96846;-82
2022/03/29 00:43:40;;;;;;;12.20;7.80;;;8.00;85.50;;;6.28;67.45;99890.59;10400866;27;96506;-82
2022/03/29 00:48:43;;;;;;;18.60;9.60;;;7.90;85.00;;;6.20;67.55;99878.16;10438325;27;96580;-82
2022/03/29 00:53:47;;;;;;;14.43;7.73;;;7.90;86.50;;;6.10;67.89;99883.47;10447129;27;96397;-80
2022/03/29 00:58:49;;;;;;;13.00;9.13;;;7.80;88.20;;;6.01;68.88;99868.53;10411975;27;96473;-81
2022/03/29 01:03:52;;;;;;;18.27;9.37;;;7.70;90.30;;;5.95;69.01;99871.75;10396857;27;98462;-81
2022/03/29 01:08:56;;;;;;;15.73;8.47;;;7.60;90.90;;;5.90;69.45;99871.31;10404704;28;96903;-81
2022/03/29 01:13:59;;;;;;;15.27;9.03;;;7.50;90.80;;;5.82;69.90;99866.78;10426769;27;96441;-81
2022/03/29 01:19:08;;;;;;;13.00;7.87;;;7.50;91.30;;;5.76;70.04;99851.56;10424190;27;96546;-81
2022/03/29 01:24:11;;;;;;;14.50;7.90;;;7.40;91.50;;;5.74;70.09;99847.38;10451992;27;98070;-81
2022/03/29 01:29:15;;;;;;;21.27;10.47;;;7.40;91.90;;;5.74;70.30;99839.47;10401425;27;98273;-81
2022/03/29 01:34:19;;;;;;;17.13;9.07;;;7.40;92.50;;;5.70;70.53;99817.88;10364837;28;96578;-81
2022/03/29 01:39:23;;;;;;;14.03;7.90;;;7.40;92.40;;;5.67;70.13;99822.59;10386376;28;96467;-81
2022/03/29 01:44:25;;;;;;;12.43;7.70;;;7.30;92.00;;;5.57;70.21;99812.91;10457334;27;96377;-82
2022/03/29 01:49:31;;;;;;;11.97;6.43;;;7.30;92.60;;;5.47;70.10;99809.50;10451338;27;97066;-81
2022/03/29 01:54:34;;;;;;;14.60;8.60;;;7.20;92.60;;;5.40;70.80;99811.03;10434701;27;96509;-82
2022/03/29 02:04:59;;;;;;;20.83;11.17;;;7.10;93.70;;;5.21;71.05;99804.00;10468123;27;96559;-80
2022/03/29 02:10:05;;;;;;;18.93;9.47;;;6.90;93.60;;;5.12;71.36;99793.50;10457908;27;96467;-82
2022/03/29 02:15:08;;;;;;;16.50;9.23;;;6.90;94.00;;;5.05;71.87;99782.72;10444338;27;96725;-83
2022/03/29 02:20:15;;;;;;;13.93;7.33;;;6.80;94.20;;;5.01;71.81;99774.25;10426611;27;96442;-81
2022/03/29 02:25:18;;;;;;;13.20;8.40;;;6.70;94.40;;;4.97;72.12;99767.63;10444241;27;96563;-82
2022/03/29 02:30:21;;;;;;;12.83;7.53;;;6.70;94.50;;;4.93;72.15;99770.69;10424533;27;96616;-82
2022/03/29 02:35:24;;;;;;;17.47;9.60;;;6.70;94.70;;;4.88;72.64;99771.13;10454302;27;96717;-81
2022/03/29 02:40:27;;;;;;;14.20;8.67;;;6.60;94.80;;;4.85;72.89;99766.13;10426847;27;96729;-82
2022/03/29 02:45:30;;;;;;;15.80;8.77;;;6.60;95.40;;;4.83;73.10;99765.44;10453679;27;96543;-82
2022/03/29 02:50:33;;;;;;;17.50;8.73;;;6.60;95.20;;;4.81;73.17;99756.88;10395672;28;96959;-81
2022/03/29 02:55:36;;;;;;;14.30;7.90;;;6.50;95.90;;;4.79;73.33;99758.78;10384471;28;96641;-81
2022/03/29 03:00:39;;;;;;;12.47;7.33;;;6.50;96.50;;;4.77;73.68;99760.75;10405745;27;96855;-81
2022/03/29 03:05:43;;;;;;;12.53;8.23;;;6.50;96.50;;;4.76;73.96;99748.56;10407362;27;96580;-81
2022/03/29 03:10:46;;;;;;;13.77;7.77;;;6.50;96.30;;;4.74;73.66;99751.34;10458075;27;97057;-81
2022/03/29 03:15:49;;;;;;;16.87;6.83;;;6.50;96.50;;;4.72;73.72;99749.81;10448983;27;97086;-82
2022/03/29 03:20:51;;;;;;;11.50;6.50;;;6.40;97.70;;;4.72;73.94;99749.81;10408165;28;96608;-81
2022/03/29 03:25:54;;;;;;;20.87;10.20;;;6.40;97.70;;;4.70;73.73;99749.94;10427804;27;96557;-82
2022/03/29 03:30:58;;;;;;;12.23;7.33;;;6.40;97.60;;;4.65;73.96;99732.91;10427232;27;98187;-82
2022/03/29 03:36:01;;;;;;;17.90;9.70;;;6.40;97.40;;;4.62;74.26;99733.19;10390609;27;96811;-82
2022/03/29 03:41:04;;;;;;;14.20;7.97;;;6.40;97.70;;;4.57;74.47;99734.47;10443640;27;96551;-82
2022/03/29 03:46:07;;;;;;;18.90;9.57;;;6.30;97.80;;;4.55;74.44;99730.28;10429338;27;96596;-82
2022/03/29 03:51:11;;;;;;;17.17;8.00;;;6.30;97.90;;;4.54;74.88;99724.19;10443391;27;96481;-81
2022/03/29 03:56:14;;;;;;;17.40;8.43;;;6.30;98.20;;;4.55;75.12;99731.13;10417774;27;96544;-81
2022/03/29 04:01:17;;;;;;;14.23;8.17;;;6.30;98.90;;;4.59;75.08;99726.41;10426855;27;96526;-81
2022/03/29 04:06:20;;;;;;;20.33;11.33;;;6.30;98.80;;;4.60;75.21;99725.44;10422657;28;96500;-81
2022/03/29 04:11:23;;;;;;;19.60;10.43;;;6.30;98.70;;;4.59;75.23;99720.31;10425951;27;97070;-81
2022/03/29 04:16:27;;;;;;;20.43;10.30;;;6.30;98.90;;;4.57;74.84;99723.94;10440010;27;96689;-81
2022/03/29 04:21:30;;;;;;;23.27;13.77;;;6.30;99.00;;;4.53;75.37;99733.06;10416110;28;96570;-81
2022/03/29 04:26:35;;;;;;;29.90;16.80;;;6.30;98.90;;;4.47;75.17;99727.53;10425953;27;96598;-81
2022/03/29 04:31:38;;;;;;;29.07;16.13;;;6.20;99.10;;;4.42;75.70;99721.88;10407243;27;96497;-80
2022/03/29 04:36:41;;;;;;;24.60;12.97;;;6.20;99.70;;;4.39;75.84;99709.00;10420551;27;97506;-80
2022/03/29 04:41:44;;;;;;;28.20;12.93;;;6.10;99.50;;;4.33;75.89;99720.91;10391261;27;97834;-79
2022/03/29 04:47:07;;;;;;;29.37;10.50;;;6.10;99.80;;;4.28;75.93;99729.22;10409937;27;96650;-80
2022/03/29 04:52:10;;;;;;;24.57;13.43;;;6.00;99.70;;;4.25;75.88;99713.69;10425158;27;96621;-80
2022/03/29 04:57:13;;;;;;;39.00;19.63;;;6.00;99.70;;;4.25;76.15;99704.97;10436561;27;96755;-81
2022/03/29 05:02:16;;;;;;;25.27;14.23;;;6.00;99.90;;;4.29;76.59;99709.81;10379980;28;96891;-79
2022/03/29 05:07:22;;;;;;;49.77;26.03;;;6.00;99.90;;;4.38;76.79;99702.06;10411105;27;97696;-80
2022/03/29 05:12:26;;;;;;;48.60;25.27;;;6.00;99.90;;;4.47;77.20;99696.78;10412594;27;96920;-80
2022/03/29 05:17:31;;;;;;;30.70;16.50;;;6.10;99.90;;;4.57;76.89;99705.50;10379463;28;96443;-80
2022/03/29 05:22:51;;;;;;;35.60;15.47;;;6.10;99.90;;;4.76;76.91;99703.81;10380203;28;96498;-81
2022/03/29 05:27:57;;;;;;;33.40;16.67;;;6.30;99.90;;;4.93;77.30;99702.25;10400471;28;96529;-80
2022/03/29 05:33:01;;;;;;;28.27;14.47;;;6.40;99.90;;;5.12;76.83;99690.81;10399870;27;96614;-84
2022/03/29 05:38:05;;;;;;;24.77;11.40;;;6.60;99.90;;;5.33;76.54;99694.00;10385819;27;96597;-85
2022/03/29 05:43:11;;;;;;;21.50;10.37;;;6.80;99.90;;;5.58;75.98;99693.34;10382093;28;96566;-84
2022/03/29 05:53:36;;;;;;;18.53;10.43;;;7.20;99.90;;;6.14;74.35;99700.16;10392796;27;96810;-92
2022/03/29 05:58:39;;;;;;;22.83;10.97;;;7.50;99.90;;;6.43;73.81;99694.63;10399863;28;96867;-83
2022/03/29 06:03:42;;;;;;;22.20;10.50;;;7.70;99.90;;;6.70;72.87;99701.59;10419737;27;96701;-84
2022/03/29 06:08:45;;;;;;;40.23;20.23;;;8.00;99.90;;;6.99;72.08;99697.78;10386595;28;96847;-85
2022/03/29 06:13:48;;;;;;;25.23;14.73;;;8.20;99.40;;;7.27;70.97;99690.50;10405517;28;96424;-84
2022/03/29 06:18:51;;;;;;;20.07;12.00;;;8.50;98.90;;;7.54;70.21;99692.09;10418880;28;96454;-85
2022/03/29 06:23:54;;;;;;;26.37;12.33;;;8.80;98.40;;;7.81;69.03;99676.97;10392314;28;96429;-84
2022/03/29 06:28:58;;;;;;;21.53;11.17;;;9.00;97.90;;;8.09;68.36;99673.00;10383984;28;96591;-85
2022/03/29 06:34:01;;;;;;;26.80;13.60;;;9.30;97.40;;;8.38;67.25;99672.53;10385680;28;96812;-85
2022/03/29 06:39:05;;;;;;;24.40;13.40;;;9.50;96.60;;;8.67;66.23;99671.19;10400878;27;98825;-85
2022/03/29 06:44:09;;;;;;;20.87;12.73;;;9.80;95.90;;;8.98;65.28;99652.72;10385639;28;96396;-86
2022/03/29 06:49:12;;;;;;;17.37;10.30;;;10.10;95.30;;;9.29;64.25;99658.06;10373653;28;96415;-83
2022/03/29 06:54:15;;;;;;;27.60;13.17;;;10.40;94.60;;;9.55;63.31;99653.31;10398067;28;98378;-83
2022/03/29 06:59:18;;;;;;;25.63;14.07;;;10.70;93.70;;;9.85;62.31;99654.28;10425596;28;96445;-83
2022/03/29 07:04:20;;;;;;;23.63;13.30;;;10.90;93.00;;;10.17;61.29;99655.03;10427058;27;96700;-83
2022/03/29 07:14:53;;;;;;;25.17;12.13;;;11.50;91.50;;;10.77;59.93;99640.88;10423609;27;96682;-80
2022/03/29 07:19:55;;;;;;;21.87;13.27;;;11.80;90.70;;;11.12;59.21;99638.50;10423786;28;96650;-79
2022/03/29 07:25:00;;;;;;;29.73;14.43;;;12.20;90.10;;;11.49;58.08;99643.66;10447969;27;96573;-80
2022/03/29 07:30:05;;;;;;;28.80;14.43;;;12.50;88.30;;;11.87;57.32;99629.34;10424509;28;96570;-82
2022/03/29 07:35:08;;;;;;;23.07;14.47;;;12.90;87.00;;;12.31;56.18;99623.81;10401385;27;96679;-80
2022/03/29 07:40:13;;;;;;;30.60;15.57;;;13.30;85.10;;;12.71;54.83;99621.41;10422555;28;97212;-82
2022/03/29 07:45:18;;;;;;;23.50;14.17;;;13.60;82.50;;;13.09;53.78;99612.00;10431634;27;96442;-81
2022/03/29 07:50:21;;;;;;;28.07;14.70;;;14.10;80.80;;;13.54;52.43;99609.72;10406432;28;96831;-81
2022/03/29 07:55:35;;;;;;;30.95;15.50;;;14.50;78.20;;;14.17;50.47;99601.38;10423299;28;96503;-82
2022/03/29 08:00:51;;;;;;;27.35;14.77;;;15.10;77.20;;;14.93;48.54;99592.84;10433450;27;96649;-83
2022/03/29 08:05:54;;;;;;;33.97;15.88;;;15.80;74.60;;;15.73;46.37;99594.16;10422031;28;96590;-83
2022/03/29 08:10:57;;;;;;;26.60;15.27;;;16.50;72.50;;;16.67;44.73;99589.66;10442607;28;96465;-83
2022/03/29 08:16:02;;;;;;;24.67;13.43;;;17.30;69.00;;;17.63;43.32;99570.13;10423738;28;96727;-83
2022/03/29 08:21:47;;;;;;;22.30;12.93;;;18.10;66.90;;;18.75;41.54;99569.31;10391849;28;96490;-84
2022/03/29 08:26:28;;;;;;;19.67;12.20;;;18.90;64.10;;;20.07;38.63;99564.81;10386009;28;96490;-82
2022/03/29 08:31:31;;;;;;;23.77;12.85;;;19.80;62.00;;;20.91;34.84;99560.13;10423073;28;96694;-83
2022/03/29 08:36:36;;;;;;;20.42;12.15;;;20.70;58.80;;;21.62;33.62;99542.03;10437773;27;96557;-83
2022/03/29 08:41:46;;;;;;;18.90;12.30;;;21.50;56.30;;;22.21;32.30;99534.97;10421378;28;96433;-83
2022/03/29 08:46:49;;;;;;;21.33;11.02;;;22.10;53.50;;;22.56;30.34;99524.34;10415742;28;96548;-84
2022/03/29 08:51:53;;;;;;;21.80;11.93;;;22.70;51.50;;;22.90;29.76;99523.97;10378586;28;96458;-84
2022/03/29 08:56:56;;;;;;;21.40;11.80;;;23.10;49.10;;;23.12;29.43;99516.47;10386820;28;96563;-83
2022/03/29 09:02:16;;;;;;;24.10;11.50;;;23.40;47.90;;;23.34;28.82;99507.31;10418764;28;96901;-83
2022/03/29 09:07:20;;;;;;;14.98;8.05;;;23.40;46.90;;;23.24;26.29;99506.22;10379260;28;96478;-84
2022/03/29 09:12:24;;;;;;;14.95;7.45;;;23.50;43.50;;;22.71;24.21;99505.47;10380779;28;96464;-83
2022/03/29 09:17:46;;;;;;;12.32;7.90;;;23.40;40.30;;;22.58;24.99;99492.41;10400136;28;96432;-83
2022/03/29 09:22:52;;;;;;;13.70;8.57;;;23.10;39.80;;;22.41;24.61;99491.78;10437700;27;96520;-83
2022/03/29 09:28:02;;;;;;;12.80;7.72;;;23.00;39.50;;;22.37;24.34;99487.94;10396742;28;96613;-84
2022/03/29 09:33:11;;;;;;;12.98;7.70;;;23.00;39.30;;;22.35;23.91;99482.00;10379761;28;96402;-84
2022/03/29 09:38:27;;;;;;;11.82;7.60;;;23.10;38.60;;;22.38;24.71;99481.47;10383551;28;96524;-83
2022/03/29 09:43:31;;;;;;;12.77;7.68;;;23.10;38.20;;;22.73;23.25;99480.00;10378599;28;96793;-83
2022/03/29 09:48:37;;;;;;;15.57;9.52;;;23.40;38.00;;;23.05;22.89;99472.56;10377970;28;96496;-83
2022/03/29 09:53:53;;;;;;;17.40;8.73;;;23.70;37.20;;;23.40;22.61;99460.97;10376909;28;96667;-83
2022/03/29 09:59:11;;;;;;;15.32;9.13;;;24.00;36.30;;;23.20;22.80;99459.03;10378883;28;96554;-83
2022/03/29 10:04:20;;;;;;;17.92;10.05;;;24.00;36.30;;;22.98;22.56;99457.66;10385056;28;96486;-83
2022/03/29 10:09:27;;;;;;;;;;;23.90;35.60;;;22.96;23.21;99449.75;10439151;27;96503;-83
2022/03/29 10:14:34;;;;;;;16.75;10.27;;;23.70;36.10;;;22.81;23.04;99445.09;10409635;28;96636;-82
2022/03/29 10:19:39;;;;;;;21.27;9.85;;;23.70;36.00;;;22.98;23.14;99430.56;10392113;28;96574;-82
2022/03/29 10:24:42;;;;;;;17.25;10.82;;;23.70;36.30;;;23.39;22.47;99426.81;10409136;28;96661;-83
2022/03/29 10:29:45;;;;;;;15.13;10.10;;;24.10;35.90;;;23.89;21.99;99418.94;10409261;28;96494;-83
2022/03/29 10:35:09;;;;;;;16.63;10.20;;;24.50;35.60;;;24.11;21.17;99411.28;10423509;27;96599;-83
2022/03/29 10:40:42;;;;;;;15.52;9.65;;;24.80;34.50;;;24.76;21.32;99384.13;10383526;28;96462;-83
2022/03/29 10:45:45;;;;;;;18.67;11.63;;;25.20;35.00;;;25.04;20.58;99372.53;10383309;28;96426;-82
2022/03/29 10:50:53;;;;;;;18.33;9.75;;;25.70;34.40;;;25.57;19.91;99374.59;10383224;28;96436;-84
2022/03/29 10:56:17;;;;;;;15.95;10.98;;;26.10;34.40;;;25.35;19.40;99361.44;10422398;28;96820;-83
2022/03/29 11:01:20;;;;;;;19.10;11.88;;;26.20;33.30;;;25.09;20.04;99353.50;10417072;28;96571;-83
2022/03/29 11:06:23;;;;;;;16.42;10.35;;;25.90;33.30;;;24.89;20.14;99345.47;10383099;28;96502;-82
2022/03/29 11:11:47;;;;;;;17.55;9.93;;;25.80;33.30;;;24.68;20.11;99335.84;10366018;28;96829;-82
2022/03/29 11:16:50;;;;;;;19.83;10.35;;;25.60;33.00;;;24.55;19.86;99319.06;10384088;28;96407;-82
2022/03/29 11:21:53;;;;;;;17.73;11.13;;;25.50;33.00;;;24.46;20.34;99328.88;10370665;28;96440;-83
2022/03/29 11:26:58;;;;;;;18.67;11.13;;;25.40;33.00;;;24.03;20.18;99316.84;10416705;28;98353;-82
2022/03/29 11:32:04;;;;;;;20.00;12.00;;;25.10;32.60;;;23.88;20.32;99314.22;10403818;28;97196;-82
2022/03/29 11:37:08;;;;;;;18.35;10.50;;;24.90;32.80;;;24.32;20.24;99305.31;10417564;28;96650;-82
2022/03/29 11:42:13;;;;;;;18.30;10.68;;;25.10;33.10;;;24.71;19.93;99298.06;10373674;28;96459;-83
2022/03/29 11:47:16;;;;;;;17.20;10.70;;;25.40;33.00;;;25.38;19.13;99282.03;10381076;28;96440;-83
2022/03/29 11:52:19;;;;;;;15.85;10.27;;;26.00;32.70;;;25.42;18.58;99276.81;10394192;28;96999;-83
2022/03/29 11:57:30;;;;;;;15.85;10.52;;;26.10;31.80;;;25.06;17.96;99277.13;10412017;28;96577;-83
2022/03/29 12:02:41;;;;;;;27.08;11.65;;;26.00;31.10;;;24.51;18.94;99262.88;10365754;28;96542;-84
2022/03/29 12:07:45;;;;;;;17.17;10.52;;;25.50;31.10;;;24.19;19.08;99264.13;10396996;28;96421;-84
2022/03/29 12:12:52;;;;;;;18.35;11.50;;;25.30;31.30;;;23.82;19.07;99247.50;10365927;28;97947;-84
2022/03/29 12:23:27;;;;;;;15.98;10.52;;;24.80;31.70;;;24.00;19.83;99244.16;10409527;28;96524;-84
2022/03/29 12:28:32;;;;;;;16.25;10.73;;;24.90;32.00;;;24.17;19.29;99236.47;10388347;28;96472;-85
2022/03/29 12:33:36;;;;;;;18.92;12.73;;;25.10;31.70;;;24.55;19.67;99220.50;10380777;28;96428;-83
2022/03/29 12:38:48;;;;;;;27.48;13.18;;;25.40;32.00;;;24.60;18.60;99231.31;10387858;28;96505;-82
2022/03/29 12:43:53;;;;;;;20.73;13.13;;;25.60;30.50;;;24.36;18.92;99222.25;10379307;28;96589;-84
2022/03/29 12:48:56;;;;;;;17.08;9.82;;;25.50;31.00;;;24.44;17.57;99211.59;10379782;28;96575;-84
2022/03/29 12:54:06;;;;;;;17.35;10.20;;;25.50;30.60;;;24.43;17.45;99209.19;10386501;28;96514;-84
2022/03/29 12:59:32;;;;;;;18.88;11.45;;;25.40;29.80;;;23.98;18.12;99194.75;10419846;27;96479;-84
2022/03/29 13:04:43;;;;;;;22.52;13.23;;;25.10;30.00;;;23.94;18.31;99183.69;10378692;28;96517;-84
2022/03/29 13:10:02;;;;;;;18.10;10.80;;;25.00;30.30;;;23.97;19.37;99187.72;10384814;28;96466;-84
2022/03/29 13:15:51;;;;;;;25.27;11.43;;;25.00;31.10;;;23.92;19.17;99191.25;10401751;28;98226;-83
2022/03/29 13:21:15;;;;;;;17.73;10.50;;;25.00;30.70;;;23.64;19.43;99186.56;10420351;28;96588;-83
2022/03/29 13:26:43;;;;;;;14.95;9.95;;;24.70;31.00;;;23.32;19.70;99182.28;10434784;27;96771;-84
2022/03/29 13:31:50;;;;;;;17.45;10.23;;;24.40;31.40;;;22.98;19.96;99182.13;10401292;28;96696;-84
2022/03/29 13:36:55;;;;;;;16.77;10.18;;;24.10;31.50;;;22.73;19.94;99173.97;10445236;27;96582;-84
2022/03/29 13:41:58;;;;;;;16.25;10.55;;;23.70;31.80;;;22.59;20.06;99171.81;10444841;27;98214;-83
2022/03/29 13:47:01;;;;;;;15.50;10.07;;;23.60;31.90;;;22.48;20.38;99163.97;10413396;28;97455;-83
2022/03/29 13:52:05;;;;;;;14.13;9.38;;;23.50;31.90;;;22.34;20.63;99163.72;10409793;28;96528;-84
2022/03/29 13:57:08;;;;;;;16.08;9.40;;;23.30;32.30;;;22.32;20.67;99147.75;10407507;28;96488;-83
2022/03/29 14:02:11;;;;;;;18.35;9.43;;;23.30;32.20;;;22.09;20.65;99149.06;10385008;28;97650;-84
2022/03/29 14:07:15;;;;;;;19.13;10.10;;;23.10;32.10;;;22.03;20.71;99160.13;10419775;27;98053;-84
2022/03/29 14:12:18;;;;;;;14.38;8.77;;;23.00;32.30;;;22.04;20.99;99143.63;10432806;27;96702;-84
2022/03/29 14:17:22;;;;;;;15.00;9.88;;;22.90;32.40;;;22.14;21.13;99143.69;10439213;27;97454;-85
2022/03/29 14:22:25;;;;;;;21.13;9.63;;;23.00;32.70;;;22.20;20.85;99138.28;10432492;27;96461;-85
2022/03/29 14:27:28;;;;;;;17.60;11.50;;;23.10;33.10;;;22.18;21.38;99122.28;10377604;28;96568;-86
2022/03/29 14:32:32;;;;;;;22.42;8.90;;;23.20;32.80;;;22.32;21.67;99133.41;10424968;28;97386;-84
2022/03/29 14:37:36;;;;;;;17.20;9.00;;;23.20;33.20;;;22.27;21.32;99128.78;10442696;27;96615;-85
2022/03/29 14:42:40;;;;;;;15.05;9.38;;;23.30;33.00;;;22.13;21.13;99106.88;10401532;28;96627;-84
2022/03/29 14:47:45;;;;;;;17.15;9.48;;;23.20;32.80;;;21.90;21.53;99112.78;10427101;27;96443;-85
2022/03/29 14:52:50;;;;;;;16.08;9.10;;;22.90;33.10;;;21.82;22.24;99100.56;10418365;28;96730;-85
2022/03/29 14:57:55;;;;;;;15.25;9.27;;;22.80;33.70;;;22.04;22.08;99102.22;10417600;27;96504;-85
2022/03/29 15:02:58;;;;;;;16.08;9.45;;;22.90;33.80;;;22.30;21.66;99101.19;10426327;27;96633;-84
2022/03/29 15:08:02;;;;;;;16.05;9.25;;;23.20;33.60;;;22.45;21.77;99086.84;10403320;27;96482;-85
2022/03/29 15:13:06;;;;;;;14.23;9.05;;;23.30;33.50;;;22.34;21.60;99091.44;10447211;27;97218;-84
2022/03/29 15:18:09;;;;;;;16.48;7.80;;;23.30;33.50;;;22.05;22.43;99088.44;10418213;27;96605;-84
2022/03/29 15:23:14;;;;;;;14.63;8.73;;;23.10;33.80;;;21.81;22.74;99082.72;10446921;27;96736;-84
2022/03/29 15:28:17;;;;;;;14.55;8.23;;;22.90;34.10;;;21.40;22.90;99079.13;10426508;27;96496;-84
2022/03/29 15:33:20;;;;;;;16.40;9.02;;;22.60;34.30;;;20.98;23.35;99080.00;10427073;27;96594;-83
2022/03/29 15:38:23;;;;;;;16.10;8.80;;;22.20;34.60;;;20.62;23.88;99076.31;10427759;27;96372;-83
2022/03/29 15:43:27;;;;;;;14.00;8.27;;;21.80;35.00;;;20.30;24.26;99068.25;10427616;27;96870;-83
2022/03/29 15:48:31;;;;;;;14.55;8.27;;;21.50;35.40;;;20.02;25.01;99062.06;10455509;27;96574;-81
2022/03/29 15:53:34;;;;;;;13.20;8.15;;;21.20;35.70;;;19.78;25.29;99069.69;10449469;27;96863;-83
2022/03/29 15:58:37;;;;;;;21.27;10.77;;;21.00;36.10;;;19.53;25.52;99062.13;10427469;27;96590;-83
2022/03/29 16:03:58;;;;;;;15.30;8.65;;;20.80;36.30;;;19.35;25.80;99062.47;10423356;27;97039;-83
2022/03/29 16:09:03;;;;;;;18.92;8.48;;;20.50;36.60;;;19.16;26.45;99061.19;10380941;28;96625;-82
2022/03/29 16:14:08;;;;;;;17.20;9.52;;;20.40;37.20;;;18.98;26.49;99054.25;10424927;27;97151;-81
2022/03/29 16:19:11;;;;;;;14.15;8.13;;;20.20;37.30;;;18.81;26.81;99051.59;10399889;28;96472;-81
2022/03/29 16:24:14;;;;;;;13.80;8.63;;;20.00;37.50;;;18.65;27.21;99047.03;10424035;28;96485;-81
2022/03/29 16:29:18;;;;;;;15.25;8.70;;;19.90;37.80;;;18.48;27.20;99055.16;10390783;28;96556;-81
2022/03/29 16:34:21;;;;;;;13.18;6.68;;;19.70;37.70;;;18.32;27.66;99045.22;10415374;27;96897;-82
2022/03/29 16:39:26;;;;;;;18.08;7.93;;;19.60;37.90;;;18.14;27.70;99051.69;10476924;27;96626;-82
2022/03/29 16:44:29;;;;;;;13.73;8.32;;;19.40;38.10;;;17.94;28.33;99062.94;10410226;27;98237;-83
2022/03/29 16:49:32;;;;;;;12.27;6.93;;;19.20;38.40;;;17.72;28.47;99054.75;10396506;27;97870;-82
2022/03/29 16:54:36;;;;;;;18.33;8.27;;;19.00;38.60;;;17.48;28.97;99053.22;10424914;27;96565;-83
2022/03/29 16:59:41;;;;;;;11.73;6.50;;;18.80;38.70;;;17.21;29.31;99048.38;10438076;27;96955;-83
2022/03/29 17:04:44;;;;;;;13.40;6.18;;;18.70;39.00;;;16.92;29.82;99039.50;10409340;28;96645;-82
2022/03/29 17:09:48;;;;;;;13.07;5.75;;;18.40;39.20;;;16.70;30.20;99044.69;10404414;28;96666;-82
2022/03/29 17:14:52;;;;;;;9.18;5.25;;;18.30;39.60;;;16.46;30.52;99048.41;10397204;28;97494;-83
2022/03/29 17:19:55;;;;;;;13.57;6.13;;;18.00;39.70;;;16.23;31.06;99044.66;10382316;28;97129;-82
2022/03/29 17:25:00;;;;;;;11.25;6.03;;;17.80;40.20;;;16.00;31.65;99050.00;10416303;28;98044;-84
2022/03/29 17:30:05;;;;;;;11.45;6.20;;;17.60;40.40;;;15.78;31.86;99049.75;10382701;27;96757;-82
2022/03/29 17:35:08;;;;;;;12.48;5.82;;;17.30;40.70;;;15.60;32.18;99055.13;10376315;27;96822;-82
2022/03/29 17:40:12;;;;;;;13.35;6.03;;;17.10;41.00;;;15.46;32.52;99043.78;10410775;27;96963;-82
2022/03/29 17:45:15;;;;;;;9.05;5.18;;;16.90;41.00;;;15.32;32.57;99051.19;10413626;27;96523;-82
2022/03/29 17:50:18;;;;;;;14.15;5.18;;;16.80;41.30;;;15.18;32.95;99055.09;10396203;28;96784;-81
2022/03/29 17:55:21;;;;;;;8.82;5.50;;;16.70;41.50;;;15.03;33.11;99058.13;10402712;28;97618;-83
2022/03/29 18:00:24;;;;;;;9.70;5.10;;;16.50;41.80;;;14.91;33.55;99057.25;10417836;27;96591;-82
2022/03/29 18:05:27;;;;;;;8.65;4.68;;;16.40;41.90;;;14.77;33.56;99058.44;10409886;27;97321;-83
2022/03/29 18:10:31;;;;;;;9.63;4.57;;;16.20;42.60;;;14.58;33.95;99052.28;10420803;28;96474;-82
2022/03/29 18:15:38;;;;;;;9.68;4.80;;;16.10;42.60;;;14.37;34.52;99058.81;10417562;27;96437;-82
2022/03/29 18:20:41;;;;;;;6.97;4.30;;;15.90;42.90;;;14.12;36.02;99054.31;10409834;27;96746;-82
2022/03/29 18:25:44;;;;;;;9.20;4.40;;;15.70;43.80;;;13.89;37.50;99062.09;10432330;27;96533;-82
2022/03/29 18:30:47;;;;;;;14.30;5.57;;;15.50;44.30;;;13.68;37.37;99068.63;10409208;27;96525;-82
2022/03/29 18:35:50;;;;;;;7.80;4.33;;;15.30;44.80;;;13.49;37.85;99059.69;10436165;27;96571;-83
2022/03/29 18:40:55;;;;;;;6.67;3.87;;;15.10;45.30;;;13.33;37.48;99068.19;10395271;28;97090;-81
2022/03/29 18:45:57;;;;;;;8.40;4.27;;;14.90;45.30;;;13.19;38.50;99066.56;10427821;27;96551;-83
2022/03/29 18:51:23;;;;;;;6.60;3.93;;;14.80;45.90;;;13.06;39.30;99062.94;10428495;27;96586;-80
2022/03/29 18:56:26;;;;;;;9.80;5.60;;;14.60;46.30;;;12.96;39.44;99067.91;10409228;27;97710;-82
2022/03/29 19:01:31;;;;;;;11.57;6.13;;;14.50;46.60;;;12.89;40.09;99064.44;10451689;27;97758;-78
2022/03/29 19:06:38;;;;;;;9.97;6.40;;;14.40;47.00;;;12.86;40.37;99063.03;10427892;27;96654;-80
2022/03/29 19:11:42;;;;;;;16.70;7.77;;;14.40;47.60;;;12.91;39.85;99059.72;10401487;28;96639;-80
2022/03/29 19:16:46;;;;;;;18.50;9.27;;;14.30;47.20;;;12.96;40.61;99067.91;10407335;27;96641;-80
2022/03/29 19:21:49;;;;;;;22.10;9.30;;;14.40;47.50;;;12.99;40.82;99072.00;10408720;27;96627;-81
2022/03/29 19:26:53;;;;;;;21.60;10.63;;;14.40;47.90;;;12.96;41.03;99064.44;10425189;27;96557;-81
2022/03/29 19:31:55;;;;;;;20.37;11.70;;;14.40;48.40;;;12.92;41.07;99061.38;10419618;27;96795;-81
2022/03/29 19:36:59;;;;;;;19.97;11.10;;;14.30;48.70;;;12.90;41.24;99066.09;10402746;28;96566;-81
2022/03/29 19:42:30;;;;;;;17.57;9.53;;;14.30;48.80;;;12.82;41.54;99067.13;10418077;27;96609;-81
2022/03/29 19:47:36;;;;;;;13.53;7.87;;;14.20;49.30;;;12.77;41.23;99058.13;10404297;27;96642;-81
2022/03/29 19:52:41;;;;;;;12.13;6.70;;;14.20;48.90;;;12.69;41.39;99058.34;10418689;27;96673;-81
2022/03/29 19:57:45;;;;;;;9.90;5.97;;;14.20;49.20;;;12.61;41.32;99056.75;10442424;27;97215;-81
2022/03/29 20:02:48;;;;;;;12.40;6.37;;;14.10;49.30;;;12.56;41.21;99054.69;10428980;27;96568;-81
2022/03/29 20:07:52;;;;;;;10.17;5.53;;;14.00;49.10;;;12.50;41.63;99047.53;10396719;28;96658;-81
2022/03/29 20:12:55;;;;;;;13.53;5.77;;;14.00;49.40;;;12.43;42.03;99048.59;10399969;28;96484;-81
2022/03/29 20:17:58;;;;;;;10.07;5.13;;;13.90;49.70;;;12.35;42.55;99049.59;10413745;27;96591;-81
2022/03/29 20:23:01;;;;;;;10.63;5.60;;;13.80;50.10;;;12.28;42.79;99038.94;10405013;28;97399;-81
2022/03/29 20:28:04;;;;;;;11.40;5.43;;;13.70;50.50;;;12.24;42.53;99034.28;10391228;28;96569;-82
2022/03/29 20:33:08;;;;;;;9.37;5.10;;;13.70;50.20;;;12.23;42.11;99028.09;10396175;28;96629;-81
2022/03/29 20:38:12;;;;;;;11.97;5.93;;;13.70;50.10;;;12.19;42.04;99029.56;10371754;28;96596;-81
2022/03/29 20:43:15;;;;;;;19.50;8.20;;;13.60;49.90;;;12.13;42.23;99022.38;10383771;28;96584;-81
2022/03/29 20:48:19;;;;;;;32.67;13.13;;;13.60;50.00;;;12.01;43.16;99019.53;10392348;28;96541;-81
2022/03/29 20:53:22;;;;;;;24.23;11.00;;;13.50;50.50;;;11.91;43.85;99026.28;10399032;28;96561;-81
2022/03/29 20:58:25;;;;;;;16.10;7.90;;;13.40;51.10;;;11.84;43.59;99020.97;10369750;28;96626;-81
2022/03/29 21:03:29;;;;;;;14.03;7.30;;;13.30;51.00;;;11.82;43.43;99009.72;10411147;28;99106;-81
2022/03/29 21:08:32;;;;;;;10.63;5.57;;;13.30;50.90;;;11.79;43.64;99013.56;10400972;28;96576;-81
2022/03/29 21:13:36;;;;;;;10.23;5.67;;;13.30;51.10;;;11.70;43.95;99014.78;10366032;28;96586;-81
2022/03/29 21:18:39;;;;;;;14.87;6.33;;;13.20;51.50;;;11.62;44.53;99008.84;10380387;28;96539;-82
2022/03/29 21:23:44;;;;;;;13.53;7.20;;;13.10;51.70;;;11.48;45.16;99003.50;10382009;28;96650;-81